Date,TemperatureHighF,TemperatureAvgF,TemperatureLowF,DewpointHighF,DewpointAvgF,DewpointLowF,HumidityHigh,HumidityAvg,HumidityLow,PressureMaxIn,PressureMinIn,WindSpeedMaxMPH,WindSpeedAvgMPH,GustSpeedMaxMPH,PrecipitationSumIn
2013-1-1,51.2,43.2,38.3,40.6,27.4,21.3,75,55,38,30.03,29.53,8,2,17,0.05
2013-1-2,51.6,45.5,38.5,46.5,34.2,23.4,89,66,43,30.30,30.03,5,1,16,0.00
2013-1-3,55.6,51.3,46.8,47.3,40.8,35.4,88,68,49,30.56,30.30,5,0,14,0.00
2013-1-4,51.4,49.4,46.6,38.4,32.8,28.4,73,53,42,30.62,30.53,6,1,22,0.00
2013-1-5,51.8,48.2,40.3,47.6,39.2,31.8,89,72,53,30.56,30.48,3,0,15,0.00
2013-1-6,47.5,43.9,37.9,44.5,40.0,31.1,92,86,72,30.48,30.36,1,0,12,0.00
2013-1-7,48.0,46.1,44.4,42.9,40.3,37.3,90,80,68,30.39,30.24,2,0,17,0.00
2013-1-8,53.9,49.5,46.6,44.6,36.5,31.9,88,62,44,30.27,30.18,3,0,15,0.04
2013-1-9,51.5,43.6,30.2,46.4,37.0,22.6,91,79,43,30.18,30.06,3,0,13,0.08
2013-1-10,40.3,37.0,29.8,36.7,31.2,23.7,90,80,66,30.06,29.88,0,0,2,0.00
2013-1-11,49.8,37.3,32.4,37.0,28.0,23.2,87,70,42,30.09,29.94,0,0,5,0.00
2013-1-12,40.5,37.9,34.7,34.9,25.2,17.1,90,62,39,29.97,29.83,9,3,30,0.21
2013-1-13,39.8,35.8,29.8,26.9,18.0,14.6,65,48,39,30.12,29.94,8,3,21,0.04
2013-1-14,37.0,34.4,29.8,32.4,26.0,17.3,83,71,57,30.09,29.65,7,2,18,0.13
2013-1-15,39.2,33.5,25.3,26.6,19.2,15.4,72,56,42,29.85,29.65,12,3,32,0.00
2013-1-16,37.6,28.3,21.7,30.1,17.4,12.1,85,64,45,30.00,29.83,5,0,13,0.00
2013-1-17,39.9,31.3,21.0,27.2,17.1,13.1,83,57,39,30.06,29.88,8,1,23,0.00
2013-1-18,35.1,31.4,29.3,19.6,16.4,13.2,62,54,41,29.85,29.44,13,4,28,0.00
2013-1-19,34.2,32.0,30.9,21.5,18.4,13.4,62,57,47,29.50,29.38,10,3,23,0.00
2013-1-20,32.7,31.1,29.5,24.8,20.3,14.1,77,64,49,29.50,29.29,12,2,23,0.00
2013-1-21,39.2,30.3,19.8,26.9,19.9,9.5,79,66,43,29.53,29.26,2,0,6,0.00
2013-1-22,38.5,28.4,14.4,30.3,16.4,3.8,81,61,43,29.68,29.50,10,2,23,0.00
2013-1-23,37.9,35.5,34.5,20.9,18.4,15.8,54,49,44,29.80,29.65,8,2,23,0.24
2013-1-24,35.6,33.7,31.6,25.6,19.4,16.2,70,56,47,30.12,29.80,7,1,14,0.09
2013-1-25,37.2,33.8,31.3,28.8,20.7,15.6,74,59,43,30.09,29.59,16,5,39,0.08
2013-1-26,48.4,42.0,35.2,40.5,32.0,23.6,93,70,39,29.83,29.56,17,6,42,0.21
2013-1-27,52.1,46.5,39.9,47.4,30.0,16.4,93,57,26,29.65,29.32,16,6,46,0.37
2013-1-28,51.3,44.2,36.3,47.1,29.9,21.1,90,58,44,29.85,29.56,14,5,51,0.13
2013-1-29,56.0,53.2,48.7,49.6,43.1,32.0,90,70,47,29.68,29.62,12,5,37,0.12
2013-1-30,56.2,50.6,44.8,49.9,31.2,17.0,86,51,26,30.03,29.53,14,6,47,0.17
2013-1-31,54.0,48.5,45.3,38.9,26.4,19.1,71,43,29,30.03,29.80,14,6,41,0.12